PST: 18:19 MST: 19:19 CST: 20:19 EST: 21:19 LDN: 02:19 UTC: 02:19
User Agent: CCBot/2.0 (https://commoncrawl.org/faq/)
IP Address: 18.232.55.175
Hostname: ec2-18-232-55-175.compute-1.amazonaws.com

METAR:
KBFI 260153Z 00000KT 10SM SCT050 BKN100 09/07 A2998 RMK AO2 SLP151 T00890072
KBFI 260053Z 00000KT 10SM BKN048 10/08 A3000 RMK AO2 SLP160 T01000078
KBFI 260000Z 14004KT 10SM FEW028 BKN038 10/08 A3001 RMK AO2 T01000083
KBFI 252353Z 16005KT 5SM BR SCT010 OVC025 11/08 A3001 RMK AO2 RAE08 SLP161 P0000 60000 T01060083 10106 20083 56001
KBFI 252258Z 18005KT 5SM -RA BR OVC025 10/09 A3001 RMK AO2 P0000 T01000089
KBFI 252253Z COR 18005KT 5SM -RA BR SCT010 OVC025 10/09 A3001 RMK AO2 RAB10 SLP162 P0000 T01000089

TAF:
KBFI 252329Z 2600/2624 18006KT P6SM SCT015 BKN025 BKN050 TEMPO 2600/2604 SCT030 BKN050
FM 260400 VRB03KT P6SM SCT050 BKN120
FM 260700 VRB03KT P6SM -RA OVC050
FM 261100 15010KT P6SM -RA OVC035 WS020/18040KT
FM 261500 16010G18KT P6SM -RA SCT022 OVC035
FM 262100 18011KT P6SM VCSH BKN035 BKN050

KBFI 251957Z 2520/2618 16005KT P6SM SCT008 OVC020 TEMPO 2520/2522 4SM -DZ BR OVC008
FM 252300 12006KT P6SM SCT015 BKN030 BKN050
FM 260200 VRB03KT P6SM SCT060 BKN120
FM 260700 VRB03KT P6SM -RA OVC050
FM 261500 16010G18KT P6SM -RA SCT022 OVC035

KBFI 251734Z 2518/2618 16005KT P6SM SCT020 OVC030 TEMPO 2518/2521 6SM -DZ BR OVC018
FM 252300 12006KT P6SM SCT035 BKN050
FM 260200 VRB03KT P6SM SCT060 BKN150
FM 260700 VRB03KT P6SM -RA OVC050
FM 261500 16010G18KT P6SM -RA SCT022 OVC035

KBFI 251556Z 2516/2612 16005KT P6SM BKN035 OVC050 TEMPO 2516/2519 -SHRA BKN030 OVC045
FM 252200 12006KT P6SM SCT035 BKN060
FM 260100 VRB03KT P6SM SCT060 BKN150
FM 260600 VRB03KT P6SM -RA OVC050

KBFI 251139Z 2512/2612 14006KT P6SM -RA OVC045
FM 251700 17008KT P6SM SCT030 OVC045 TEMPO 2517/2520 -SHRA BKN030 OVC045
FM 252200 12006KT P6SM SCT035 BKN060
FM 260100 VRB03KT P6SM SCT060 BKN150
FM 260600 VRB03KT P6SM -RA OVC050

KBFI 250918Z 2509/2606 15006KT P6SM -RA OVC045
FM 251500 13006KT 4SM -RA BR OVC025
FM 251700 15008KT P6SM VCSH SCT025 OVC035
FM 252000 19008KT P6SM SCT025 BKN035 OVC040

KBFI 250522Z 2506/2606 15007KT P6SM SCT025 OVC040
FM 251300 11006KT 4SM -RA BR OVC025
FM 251700 15008KT P6SM VCSH SCT025 OVC035
FM 252000 19008KT P6SM SCT025 BKN035 OVC040

KBFI 242320Z 2500/2524 21008KT P6SM SCT025 BKN040
FM 251000 15008KT P6SM -RA OVC030
FM 251700 15008KT P6SM VCSH BKN040